Time;durP1;ratioP1;P1;durP2;ratioP2;P2;SDS_P1;SDS_P2;PMS_P1;PMS_P2;Temp;Humidity;BMP_temperature;BMP_pressure;BME280_temperature;BME280_humidity;BME280_pressure;Samples;Min_cycle;Max_cycle;Signal;HPM_P1;HPM_P2
2022/07/18 00:02:03;;;;;;;1.80;1.70;;;16.10;44.80;;;15.19;47.41;98704.53;5005010;28;20455;-77
2022/07/18 00:04:31;;;;;;;3.47;1.83;;;16.10;44.80;;;15.28;47.29;98714.03;5004019;28;21206;-76
2022/07/18 00:06:58;;;;;;;1.93;1.70;;;16.10;44.80;;;15.15;47.71;98709.59;5003301;28;20959;-77
2022/07/18 00:09:26;;;;;;;3.03;1.93;;;16.10;44.90;;;15.30;46.63;98711.91;4991245;28;20487;-77
2022/07/18 00:11:54;;;;;;;2.70;2.13;;;16.10;44.40;;;15.18;46.88;98708.31;4993511;28;20455;-76
2022/07/18 00:14:23;;;;;;;2.10;1.53;;;16.10;44.50;;;15.21;47.24;98707.84;5020757;28;20545;-76
2022/07/18 00:16:51;;;;;;;1.63;1.47;;;16.10;44.80;;;15.08;47.23;98702.56;5007525;28;20486;-76
2022/07/18 00:19:18;;;;;;;1.70;1.60;;;16.00;44.70;;;14.65;47.73;98677.94;4996995;28;20475;-76
2022/07/18 00:21:46;;;;;;;2.10;1.73;;;15.90;44.80;;;14.75;48.50;98712.78;4996985;28;20463;-76
2022/07/18 00:24:13;;;;;;;2.77;2.57;;;15.70;45.10;;;14.64;48.65;98708.06;5003481;28;20960;-76
2022/07/18 00:26:40;;;;;;;3.27;2.20;;;15.50;45.30;;;14.59;49.03;98698.69;5005417;28;20886;-76
2022/07/18 00:29:07;;;;;;;1.77;1.63;;;15.40;45.60;;;14.78;48.73;98708.75;5003006;28;20730;-77
2022/07/18 00:31:36;;;;;;;1.90;1.70;;;15.50;45.70;;;14.80;48.28;98706.69;4999462;28;20463;-77
2022/07/18 00:34:04;;;;;;;2.03;1.80;;;15.60;45.60;;;14.77;48.84;98709.81;4999594;28;20461;-77
2022/07/18 00:36:32;;;;;;;1.73;1.63;;;15.60;45.80;;;14.78;48.86;98715.03;4998040;28;20464;-76
2022/07/18 00:39:00;;;;;;;2.50;1.67;;;15.60;45.80;;;14.76;48.91;98708.16;5002646;28;20460;-76
2022/07/18 00:41:27;;;;;;;1.50;1.40;;;15.60;45.80;;;14.65;49.12;98716.00;4997571;28;20451;-76
2022/07/18 00:43:54;;;;;;;1.80;1.70;;;15.50;45.80;;;14.43;49.50;98718.31;5010996;28;20451;-76
2022/07/18 00:46:23;;;;;;;1.63;1.53;;;15.30;45.90;;;14.37;50.14;98730.06;5006365;28;20459;-76
2022/07/18 00:48:53;;;;;;;2.67;1.80;;;15.20;46.20;;;14.33;50.17;98726.97;5021244;28;20535;-77
2022/07/18 00:51:21;;;;;;;2.73;2.13;;;15.20;46.30;;;14.50;48.87;98729.13;5017645;28;20451;-77
2022/07/18 00:53:50;;;;;;;2.73;1.80;;;15.20;46.20;;;14.51;49.46;98738.94;5009149;28;20454;-76
2022/07/18 00:56:20;;;;;;;1.90;1.80;;;15.30;46.00;;;14.59;49.43;98733.19;4998866;28;20489;-76
2022/07/18 00:58:48;;;;;;;2.90;2.07;;;15.40;46.20;;;14.36;49.88;98731.97;5003816;28;20463;-76
2022/07/18 01:04:01;;;;;;;4.97;1.97;;;15.20;46.40;;;14.18;50.63;98732.72;5003452;28;20477;-76
2022/07/18 01:06:29;;;;;;;2.07;1.87;;;15.10;46.70;;;14.10;50.70;98736.56;5001742;28;20487;-76
2022/07/18 01:08:58;;;;;;;1.50;1.40;;;15.00;46.60;;;14.13;50.37;98725.22;5020084;28;20454;-75
2022/07/18 01:11:26;;;;;;;3.00;2.10;;;15.10;46.60;;;13.86;50.46;98671.09;4998165;28;20469;-74
2022/07/18 01:13:54;;;;;;;3.00;2.67;;;15.10;46.80;;;14.17;50.91;98728.34;5002794;28;20676;-76
2022/07/18 01:16:22;;;;;;;3.13;1.90;;;15.10;47.10;;;14.00;52.01;98725.34;4999373;28;20479;-76
2022/07/18 01:18:51;;;;;;;3.23;2.40;;;14.90;47.40;;;13.92;52.01;98723.72;5000881;28;20493;-76
2022/07/18 01:21:20;;;;;;;2.00;1.70;;;14.90;47.60;;;13.97;52.56;98720.34;4997783;28;20456;-75
2022/07/18 01:23:47;;;;;;;3.60;2.00;;;14.80;47.90;;;13.96;52.78;98724.97;4996976;28;20474;-75
2022/07/18 01:26:16;;;;;;;2.20;2.00;;;14.80;48.30;;;13.92;52.55;98712.03;4999643;28;20466;-74
2022/07/18 01:28:44;;;;;;;2.70;2.07;;;14.80;48.30;;;13.82;51.40;98712.53;5005065;28;21310;-75
2022/07/18 01:31:12;;;;;;;2.40;2.00;;;14.80;47.50;;;13.83;52.22;98719.63;5013437;28;20471;-75
2022/07/18 01:33:40;;;;;;;2.70;2.20;;;14.70;47.70;;;13.38;52.70;98666.19;4999868;28;20459;-76
2022/07/18 01:36:08;;;;;;;1.70;1.60;;;14.60;48.00;;;13.73;53.56;98717.41;4997369;28;20810;-76
2022/07/18 01:38:38;;;;;;;3.23;2.43;;;14.60;48.70;;;13.59;52.89;98720.19;5004595;28;20459;-75
2022/07/18 01:41:06;;;;;;;2.13;1.93;;;14.50;48.50;;;13.66;53.47;98719.31;4999436;28;20460;-75
2022/07/18 01:43:37;;;;;;;2.80;2.30;;;14.60;48.80;;;13.41;53.54;98722.75;5003246;28;20464;-76
2022/07/18 01:46:06;;;;;;;2.67;2.10;;;14.40;48.60;;;13.42;53.54;98716.25;5012793;28;20465;-75
2022/07/18 01:48:33;;;;;;;2.80;2.23;;;14.30;48.80;;;13.47;53.76;98724.63;5018769;28;20467;-75
2022/07/18 01:51:00;;;;;;;4.30;2.00;;;14.30;49.00;;;13.44;53.31;98722.38;4993639;28;20501;-76
2022/07/18 01:53:27;;;;;;;2.50;1.70;;;14.30;48.60;;;13.47;53.57;98724.63;5014790;28;20635;-75
2022/07/18 01:55:56;;;;;;;3.17;2.20;;;14.30;48.90;;;13.44;53.81;98722.38;4994427;28;20487;-76
2022/07/18 01:58:23;;;;;;;2.90;2.30;;;14.30;49.10;;;13.22;53.87;98719.91;4999906;28;20484;-75
2022/07/18 02:00:51;;;;;;;2.33;1.97;;;14.20;48.90;;;13.39;53.64;98731.13;4997565;28;20460;-75
2022/07/18 02:03:21;;;;;;;2.33;1.70;;;14.20;49.00;;;13.20;53.74;98732.88;5001508;28;20517;-75
2022/07/18 02:05:49;;;;;;;2.33;1.80;;;14.10;48.80;;;13.20;53.72;98735.59;4998420;28;20498;-76
2022/07/18 02:08:16;;;;;;;2.43;1.87;;;14.10;49.10;;;13.18;52.88;98729.53;5003926;28;21014;-75
2022/07/18 02:10:43;;;;;;;2.90;1.97;;;14.10;48.50;;;13.24;53.77;98728.66;5003964;28;20463;-76
2022/07/18 02:13:12;;;;;;;2.20;2.00;;;14.10;49.00;;;13.22;54.58;98733.47;5002746;28;20472;-76
2022/07/18 02:15:39;;;;;;;1.93;1.73;;;14.10;49.60;;;13.13;55.12;98735.59;4998516;28;20585;-75
2022/07/18 02:18:06;;;;;;;2.70;1.93;;;14.10;49.70;;;13.18;53.41;98740.41;4998359;28;20483;-75
2022/07/18 02:20:34;;;;;;;2.90;1.93;;;14.10;49.00;;;13.17;53.67;98731.41;5000645;28;21006;-75
2022/07/18 02:23:01;;;;;;;3.30;1.70;;;14.10;49.00;;;13.15;53.15;98729.97;5005694;28;20455;-76
2022/07/18 02:25:29;;;;;;;2.93;2.00;;;14.10;48.70;;;12.92;53.25;98731.28;4996352;28;21259;-74
2022/07/18 02:27:56;;;;;;;3.50;1.90;;;13.90;48.50;;;13.04;53.08;98735.00;5020439;28;20463;-75
2022/07/18 02:30:25;;;;;;;2.03;1.40;;;14.00;48.60;;;13.00;53.02;98739.22;5005922;28;20517;-75
2022/07/18 02:32:52;;;;;;;3.57;1.60;;;13.90;48.40;;;12.95;52.45;98736.28;5001489;28;20466;-76
2022/07/18 02:35:19;;;;;;;2.37;2.00;;;13.90;48.10;;;13.02;52.42;98744.41;5000097;28;20465;-76
2022/07/18 02:37:47;;;;;;;1.73;1.63;;;13.90;48.20;;;13.02;52.15;98737.13;4998911;28;20493;-77
2022/07/18 02:40:14;;;;;;;3.90;2.00;;;13.90;48.00;;;13.22;51.68;98741.63;4997306;28;20469;-76
2022/07/18 02:42:41;;;;;;;2.80;1.50;;;14.10;47.70;;;13.24;51.91;98728.66;5005677;28;20494;-75
2022/07/18 02:45:10;;;;;;;3.10;2.37;;;14.20;48.00;;;13.18;51.74;98735.78;5002028;28;20461;-75
2022/07/18 02:47:39;;;;;;;2.10;1.90;;;14.20;47.70;;;13.17;51.99;98733.31;5002679;28;20462;-74
2022/07/18 02:50:08;;;;;;;2.13;1.93;;;14.20;47.80;;;13.17;52.17;98733.31;4999651;28;20482;-76
2022/07/18 02:52:35;;;;;;;3.70;2.03;;;14.20;47.90;;;13.17;52.54;98734.13;4999250;28;20455;-77
2022/07/18 02:55:03;;;;;;;5.03;2.27;;;14.20;48.10;;;13.09;52.82;98733.53;5000379;28;20453;-76
2022/07/18 02:57:30;;;;;;;2.87;2.57;;;14.10;48.20;;;12.99;53.04;98736.69;5000468;28;20469;-77
2022/07/18 02:59:58;;;;;;;5.47;2.13;;;14.00;48.30;;;12.95;53.45;98741.72;5001871;28;21123;-77
2022/07/18 03:02:27;;;;;;;2.70;2.50;;;14.00;48.40;;;12.92;53.36;98746.75;5004253;28;20539;-76
2022/07/18 03:04:56;;;;;;;4.70;2.03;;;13.90;48.40;;;12.93;53.45;98738.38;4998090;28;20873;-77
2022/07/18 03:07:23;;;;;;;3.10;2.47;;;13.90;48.50;;;12.97;53.33;98738.78;5003231;28;20526;-76
2022/07/18 03:09:51;;;;;;;3.80;2.13;;;14.00;48.70;;;12.85;54.06;98744.06;4998173;28;21031;-78
2022/07/18 03:12:19;;;;;;;2.97;2.00;;;13.90;48.70;;;12.90;53.74;98744.25;5001954;28;20466;-75
2022/07/18 03:14:46;;;;;;;2.40;2.00;;;13.90;48.80;;;12.85;53.73;98731.31;5001817;28;20462;-76
2022/07/18 03:17:13;;;;;;;4.67;2.43;;;13.90;49.20;;;12.80;55.17;98741.13;5000680;28;20477;-76
2022/07/18 03:19:41;;;;;;;3.80;2.40;;;13.80;49.30;;;12.79;54.99;98740.31;4998858;28;20459;-77
2022/07/18 03:22:10;;;;;;;2.93;2.00;;;13.80;49.60;;;12.83;55.13;98743.44;4997098;28;20467;-75
2022/07/18 03:24:37;;;;;;;2.60;2.13;;;13.80;49.90;;;12.89;55.62;98746.13;5001314;28;20477;-75
2022/07/18 03:27:04;;;;;;;2.40;1.77;;;13.80;50.00;;;12.89;54.73;98737.16;5015172;28;21027;-75
2022/07/18 03:29:32;;;;;;;3.33;2.33;;;13.80;49.80;;;12.83;54.57;98738.00;5001706;28;20805;-76
2022/07/18 03:31:59;;;;;;;3.40;2.00;;;13.80;49.70;;;12.76;54.81;98732.59;4998085;28;20539;-77
2022/07/18 03:34:26;;;;;;;4.27;2.80;;;13.80;49.70;;;12.86;54.63;98738.41;5000062;28;21000;-77
2022/07/18 03:36:54;;;;;;;2.90;2.23;;;13.80;49.90;;;12.82;54.52;98739.06;5017811;28;20462;-76
2022/07/18 03:39:23;;;;;;;10.83;3.37;;;13.80;49.70;;;12.99;53.65;98742.97;4997705;28;20477;-78
2022/07/18 03:41:52;;;;;;;6.83;2.90;;;13.90;49.50;;;13.06;53.13;98728.53;4997239;28;20539;-75
2022/07/18 03:44:19;;;;;;;4.67;3.00;;;13.90;49.00;;;13.04;52.97;98729.59;5004023;28;20531;-76
2022/07/18 03:46:46;;;;;;;6.57;3.07;;;13.90;48.80;;;13.03;52.50;98741.50;4997477;28;20891;-76
2022/07/18 03:49:14;;;;;;;6.87;3.03;;;14.00;48.70;;;13.15;52.36;98740.84;4997130;28;20462;-76
2022/07/18 03:51:41;;;;;;;7.37;3.70;;;14.00;48.50;;;13.15;52.44;98736.22;4997191;28;20471;-76
2022/07/18 03:54:09;;;;;;;6.47;3.20;;;14.10;48.30;;;13.23;51.77;98732.44;4998626;28;20501;-76
2022/07/18 03:56:38;;;;;;;6.30;3.33;;;14.10;48.40;;;13.20;51.46;98722.00;5002444;28;20486;-76
2022/07/18 03:59:06;;;;;;;4.97;3.63;;;14.20;47.90;;;13.33;51.51;98745.53;5015816;28;20481;-76
2022/07/18 04:01:33;;;;;;;5.97;3.00;;;14.30;48.00;;;13.37;51.41;98741.38;5018140;28;20466;-75
2022/07/18 04:04:00;;;;;;;7.13;3.73;;;14.30;47.90;;;13.37;51.75;98745.94;5030396;28;20463;-76
2022/07/18 04:06:28;;;;;;;9.13;4.10;;;14.30;47.90;;;13.42;51.08;98732.56;5024923;28;20470;-76
2022/07/18 04:08:55;;;;;;;4.97;3.97;;;14.40;47.70;;;13.42;51.44;98741.53;5013019;28;20473;-77
2022/07/18 04:11:23;;;;;;;8.47;4.20;;;14.40;47.80;;;13.54;51.35;98733.56;4997499;28;20466;-77
2022/07/18 04:13:53;;;;;;;9.23;3.63;;;14.50;48.00;;;13.57;52.07;98737.75;5013387;28;21148;-77
2022/07/18 04:16:22;;;;;;;6.53;3.40;;;14.60;48.20;;;13.73;51.35;98741.84;4997577;28;20963;-76
2022/07/18 04:18:49;;;;;;;5.60;2.97;;;14.60;48.10;;;13.80;50.69;98682.88;4996931;28;21004;-75
2022/07/18 04:21:17;;;;;;;4.60;3.80;;;15.10;48.00;;;14.94;48.76;98729.94;4996695;28;20518;-76
2022/07/18 04:23:45;;;;;;;8.37;3.57;;;15.90;47.30;;;16.13;46.05;98724.19;5003091;28;20462;-75
2022/07/18 04:26:12;;;;;;;7.57;3.50;;;17.00;46.30;;;16.83;44.44;98728.00;4996236;28;20464;-78
2022/07/18 04:28:40;;;;;;;5.63;3.80;;;17.90;45.50;;;17.40;43.11;98720.16;5002559;28;20574;-76
2022/07/18 04:31:08;;;;;;;5.67;4.03;;;18.80;44.70;;;17.96;42.33;98738.66;4992815;28;21018;-77
2022/07/18 04:33:36;;;;;;;6.63;3.70;;;19.50;44.10;;;17.94;41.83;98736.19;4998719;28;20472;-77
2022/07/18 04:36:03;;;;;;;7.87;3.50;;;19.70;43.60;;;17.97;41.49;98730.22;4997472;28;20459;-77
2022/07/18 04:38:34;;;;;;;8.67;3.10;;;19.90;43.40;;;18.04;41.93;98729.25;5001683;28;20543;-75
2022/07/18 04:41:01;;;;;;;6.00;3.00;;;19.80;43.30;;;18.77;41.80;98676.50;4995422;28;20962;-75
2022/07/18 04:43:28;;;;;;;6.67;3.50;;;20.30;44.20;;;19.95;37.43;98629.59;5001144;28;20465;-73
2022/07/18 04:45:57;;;;;;;9.70;3.60;;;21.60;43.10;;;20.93;36.82;98693.31;5000606;28;21014;-74
2022/07/18 04:48:25;;;;;;;6.33;3.53;;;22.20;43.00;;;21.85;35.34;98724.16;5017026;28;20452;-75
2022/07/18 04:50:54;;;;;;;5.10;3.00;;;22.80;42.50;;;21.60;35.46;98664.41;5000792;28;20515;-75
2022/07/18 04:53:34;;;;;;;8.80;3.93;;;23.10;42.80;;;22.01;33.74;98639.72;4999332;28;20481;-75
2022/07/18 04:56:03;;;;;;;5.10;3.93;;;23.50;41.90;;;22.60;34.07;98705.47;4999470;28;20459;-77
2022/07/18 04:58:30;;;;;;;9.17;4.13;;;23.70;41.90;;;22.73;33.72;98704.84;4999363;28;20484;-76
2022/07/18 05:00:58;;;;;;;11.63;4.17;;;23.90;41.80;;;22.41;33.49;98729.94;5007253;28;20497;-76
2022/07/18 05:03:27;;;;;;;5.57;3.83;;;23.80;41.00;;;22.15;34.46;98732.69;5001110;28;20460;-76
2022/07/18 05:05:54;;;;;;;4.50;3.27;;;23.40;41.50;;;22.31;34.42;98687.56;4995635;28;20831;-77
2022/07/18 05:08:21;;;;;;;9.10;3.93;;;23.50;41.90;;;23.07;32.54;98725.44;5009637;28;20458;-75
2022/07/18 05:10:50;;;;;;;6.50;3.57;;;24.00;41.40;;;21.97;34.11;98732.13;4997672;28;20462;-73
2022/07/18 05:13:18;;;;;;;8.90;4.33;;;23.60;40.90;;;21.88;34.84;98706.25;4998734;28;20561;-78
2022/07/18 05:15:46;;;;;;;9.53;3.27;;;23.70;40.80;;;23.86;32.62;98730.31;4998242;28;20463;-74
2022/07/18 05:18:13;;;;;;;5.50;3.63;;;24.40;41.80;;;22.72;32.11;98740.97;5007081;28;20696;-72
2022/07/18 05:20:42;;;;;;;5.83;3.67;;;24.30;40.10;;;21.88;33.24;98733.75;4999089;28;20539;-74
2022/07/18 05:23:09;;;;;;;7.03;3.20;;;23.60;39.90;;;22.64;32.63;98729.38;4996912;28;20455;-75
2022/07/18 05:25:37;;;;;;;5.43;3.70;;;23.80;40.20;;;22.13;34.22;98723.91;5013807;28;20468;-72
2022/07/18 05:28:05;;;;;;;4.20;3.80;;;23.60;40.50;;;22.39;32.25;98746.72;4998160;28;20451;-81
2022/07/18 05:30:33;;;;;;;3.13;2.80;;;23.60;39.90;;;21.86;33.21;98736.81;4998520;28;20515;-74
2022/07/18 05:33:00;;;;;;;8.47;3.23;;;23.20;39.60;;;22.51;31.57;98740.97;5003316;28;20582;-79
2022/07/18 05:35:27;;;;;;;7.03;2.97;;;23.50;39.70;;;22.58;30.79;98680.13;5000135;28;20465;-78
2022/07/18 05:37:56;;;;;;;6.00;2.53;;;23.80;39.40;;;22.92;30.66;98740.91;5001936;28;20478;-80
2022/07/18 05:40:23;;;;;;;4.30;2.97;;;24.10;38.90;;;21.90;31.41;98737.06;4999943;28;20552;-78
2022/07/18 05:42:51;;;;;;;7.57;4.60;;;23.60;38.50;;;22.59;30.80;98742.34;4996055;28;20825;-79
2022/07/18 05:45:20;;;;;;;3.43;2.63;;;23.70;38.60;;;22.75;30.51;98741.22;4998458;28;20463;-78
2022/07/18 05:47:48;;;;;;;7.13;3.60;;;23.70;38.70;;;23.13;29.87;98740.03;5006042;28;20557;-78
2022/07/18 05:50:15;;;;;;;5.63;3.07;;;24.20;38.40;;;22.80;30.35;98743.13;5006518;28;20462;-79
2022/07/18 05:52:43;;;;;;;4.07;3.00;;;24.20;38.30;;;23.05;30.24;98738.66;4999501;28;20462;-79
2022/07/18 05:55:13;;;;;;;6.70;2.60;;;24.30;38.60;;;22.78;30.42;98734.31;5010367;28;21311;-76
2022/07/18 05:57:40;;;;;;;3.27;2.77;;;24.40;38.40;;;23.44;29.97;98740.75;5000464;28;20801;-77
2022/07/18 06:00:11;;;;;;;7.70;4.10;;;24.90;38.60;;;23.64;29.58;98739.00;4993341;28;20460;-74
2022/07/18 06:02:38;;;;;;;3.77;2.33;;;24.80;38.40;;;23.73;29.33;98736.47;5015316;28;20572;-81
2022/07/18 06:05:07;;;;;;;5.73;3.23;;;24.90;38.40;;;23.24;30.12;98743.56;4995324;28;20443;-82
2022/07/18 06:07:35;;;;;;;4.43;2.27;;;24.60;38.30;;;24.12;29.12;98737.59;5015481;28;20936;-80
2022/07/18 06:10:02;;;;;;;6.50;3.00;;;25.10;38.60;;;24.30;28.45;98734.13;4999078;28;20467;-78
2022/07/18 06:12:32;;;;;;;6.37;2.70;;;25.60;38.10;;;24.52;28.45;98735.63;5000717;28;20486;-79
2022/07/18 06:14:59;;;;;;;10.50;3.53;;;25.80;38.00;;;23.97;28.71;98725.53;4997255;28;20478;-76
2022/07/18 06:17:28;;;;;;;3.97;2.60;;;25.60;37.60;;;24.96;27.58;98733.00;5004456;28;20477;-80
2022/07/18 06:19:56;;;;;;;3.70;2.67;;;25.90;37.70;;;25.14;27.38;98732.22;5005891;28;20480;-77
2022/07/18 06:22:23;;;;;;;3.53;2.10;;;26.50;37.40;;;23.76;28.97;98736.72;5015113;28;20475;-75
2022/07/18 06:24:51;;;;;;;2.90;2.53;;;25.60;37.40;;;23.90;28.65;98736.09;5009668;28;20473;-75
2022/07/18 06:27:19;;;;;;;2.43;2.10;;;25.20;37.60;;;23.27;30.06;98729.22;5011753;28;20471;-77
2022/07/18 06:29:48;;;;;;;3.60;2.23;;;24.80;38.00;;;21.84;31.94;98732.66;5002652;28;21238;-77
2022/07/18 06:32:15;;;;;;;7.40;2.67;;;23.60;38.30;;;21.09;33.45;98735.44;4999915;28;20456;-76
2022/07/18 06:34:42;;;;;;;4.20;2.53;;;22.40;38.80;;;20.08;35.20;98740.75;4997579;28;20474;-81
2022/07/18 06:37:10;;;;;;;5.00;2.73;;;21.50;39.30;;;19.72;35.46;98737.63;5004405;28;20470;-79
2022/07/18 06:39:37;;;;;;;4.73;2.77;;;20.90;39.50;;;19.96;35.79;98740.91;5012318;28;20475;-77
2022/07/18 06:42:04;;;;;;;4.73;2.67;;;20.80;40.10;;;19.90;35.50;98731.78;5014496;28;21177;-81
2022/07/18 06:44:32;;;;;;;4.53;2.60;;;20.70;40.10;;;19.85;35.68;98734.44;5000562;28;20974;-74
2022/07/18 06:47:01;;;;;;;5.60;2.97;;;20.70;40.10;;;20.11;35.87;98732.00;5001615;28;20458;-74
2022/07/18 06:49:28;;;;;;;2.80;2.20;;;20.80;40.60;;;19.82;35.41;98686.47;4999327;28;20470;-77
2022/07/18 06:51:56;;;;;;;5.07;3.07;;;20.90;40.10;;;19.96;35.81;98664.13;5018323;28;20457;-75
2022/07/18 06:54:27;;;;;;;3.10;2.70;;;21.00;40.50;;;20.04;35.60;98726.72;4999569;28;20839;-75
2022/07/18 06:56:55;;;;;;;2.60;2.40;;;20.90;40.20;;;20.27;34.80;98721.97;5000022;28;20526;-74
2022/07/18 06:59:22;;;;;;;2.97;2.17;;;21.00;40.10;;;20.21;34.91;98714.78;4998901;28;20525;-78
2022/07/18 07:01:49;;;;;;;4.20;2.93;;;21.00;39.80;;;20.17;36.06;98720.00;5003952;28;20469;-77
2022/07/18 07:04:18;;;;;;;5.50;2.93;;;21.00;40.60;;;20.26;36.27;98723.06;5000084;28;20499;-77
2022/07/18 07:06:45;;;;;;;5.53;3.00;;;21.00;40.50;;;20.47;36.13;98728.72;4993939;28;20451;-80
2022/07/18 07:09:12;;;;;;;3.67;2.50;;;21.10;40.90;;;20.61;35.36;98716.19;4992250;28;20549;-79
2022/07/18 07:11:40;;;;;;;4.90;2.60;;;21.30;40.70;;;20.73;35.47;98724.22;4990851;28;20469;-76
2022/07/18 07:14:07;;;;;;;3.93;2.57;;;21.50;40.70;;;20.62;35.31;98723.31;5008342;28;20468;-73
2022/07/18 07:16:34;;;;;;;7.53;3.07;;;21.50;40.70;;;20.56;35.49;98721.66;4999161;28;21167;-82
2022/07/18 07:19:01;;;;;;;5.27;2.87;;;21.30;40.60;;;20.72;35.75;98721.75;4995798;28;20554;-77
2022/07/18 07:21:30;;;;;;;6.47;2.80;;;21.40;40.90;;;20.99;34.75;98720.81;4998550;28;20530;-79
2022/07/18 07:23:57;;;;;;;4.60;2.67;;;21.70;40.70;;;21.06;34.43;98713.16;5000079;28;20485;-72
2022/07/18 07:26:24;;;;;;;4.37;2.40;;;21.80;40.40;;;21.30;34.21;98718.19;4991117;28;20473;-79
2022/07/18 07:28:53;;;;;;;3.00;2.30;;;21.90;40.30;;;21.46;33.76;98719.91;4999442;28;20467;-81
2022/07/18 07:31:20;;;;;;;3.83;2.67;;;22.10;40.10;;;21.61;34.09;98715.53;4995833;28;20467;-82
2022/07/18 07:33:47;;;;;;;4.37;2.30;;;22.30;40.40;;;21.86;33.62;98719.47;4993866;28;20542;-85
2022/07/18 07:36:15;;;;;;;4.23;2.50;;;22.50;40.50;;;21.96;33.15;98718.66;4992769;28;20542;-77
2022/07/18 07:38:43;;;;;;;4.40;2.67;;;22.60;40.20;;;22.06;33.25;98718.66;4993264;28;20479;-78
2022/07/18 07:41:13;;;;;;;5.13;2.50;;;22.80;40.30;;;21.95;33.50;98723.34;4989724;28;20470;-78
2022/07/18 07:43:40;;;;;;;5.80;2.80;;;22.80;40.30;;;21.70;33.60;98710.38;4998389;28;20487;-78
2022/07/18 07:46:07;;;;;;;4.60;2.93;;;22.50;40.00;;;21.71;33.19;98712.84;4986810;28;20478;-77
2022/07/18 07:48:34;;;;;;;4.33;2.73;;;22.40;39.90;;;21.98;33.33;98724.69;4992281;28;20444;-73
2022/07/18 07:51:03;;;;;;;7.17;3.27;;;22.70;40.20;;;21.85;33.19;98726.06;4995190;28;20466;-75
2022/07/18 07:53:31;;;;;;;4.50;2.53;;;22.70;40.00;;;22.02;32.81;98725.81;4993643;28;20515;-80
2022/07/18 07:55:59;;;;;;;6.07;3.10;;;22.70;39.90;;;22.20;32.52;98721.69;4988772;28;20459;-80
2022/07/18 07:58:27;;;;;;;4.03;2.73;;;22.80;39.70;;;22.36;32.20;98723.31;4992469;28;20558;-79
2022/07/18 08:00:54;;;;;;;4.40;2.70;;;23.00;39.70;;;22.51;32.22;98724.44;5013507;28;20869;-74
2022/07/18 08:03:22;;;;;;;6.80;2.90;;;23.10;39.80;;;22.59;32.29;98718.41;5000167;28;20498;-85
2022/07/18 08:05:51;;;;;;;4.97;3.47;;;23.20;39.80;;;22.51;31.93;98724.44;4989019;28;20459;-70
2022/07/18 08:08:19;;;;;;;7.07;3.10;;;23.20;39.60;;;22.66;31.53;98717.28;4991836;28;21006;-79
2022/07/18 08:10:47;;;;;;;5.53;3.17;;;23.40;39.50;;;22.60;31.04;98717.28;4998793;28;20466;-80
2022/07/18 08:13:16;;;;;;;3.30;2.67;;;23.40;39.30;;;23.17;30.87;98725.41;4993725;28;20496;-74
2022/07/18 08:15:44;;;;;;;3.80;2.63;;;23.60;39.40;;;23.33;30.38;98711.59;5014545;28;20533;-78
2022/07/18 08:18:11;;;;;;;3.43;2.60;;;23.90;39.10;;;23.47;30.49;98712.63;4995244;28;20446;-76
2022/07/18 08:20:39;;;;;;;3.53;2.77;;;24.10;39.20;;;23.71;29.76;98717.44;4997969;28;20532;-80
2022/07/18 08:23:08;;;;;;;4.17;2.80;;;24.30;39.00;;;23.69;29.40;98714.13;4997718;28;20475;-79
2022/07/18 08:25:38;;;;;;;3.23;2.63;;;24.30;38.60;;;23.84;29.24;98720.66;4991091;28;20826;-81
2022/07/18 08:28:07;;;;;;;5.53;2.40;;;24.40;38.60;;;23.95;29.10;98711.22;4998725;28;20471;-81
2022/07/18 08:30:37;;;;;;;5.60;2.70;;;24.60;38.80;;;23.87;29.14;98692.50;5004576;28;20455;-80
2022/07/18 08:33:06;;;;;;;3.07;2.60;;;24.60;38.50;;;23.96;29.04;98703.75;5011254;28;22709;-73
2022/07/18 08:35:34;;;;;;;5.03;2.77;;;24.60;38.50;;;24.19;28.86;98700.28;5025707;28;20467;-78
2022/07/18 08:38:02;;;;;;;2.57;2.37;;;24.80;38.60;;;24.33;28.92;98700.41;5002786;28;20471;-75
2022/07/18 08:40:30;;;;;;;7.93;3.40;;;25.00;38.60;;;24.25;28.69;98697.47;4993449;28;20487;-79
2022/07/18 08:42:59;;;;;;;3.77;2.67;;;24.90;38.30;;;24.36;28.37;98695.47;5002457;28;20470;-87
2022/07/18 08:45:26;;;;;;;3.50;2.73;;;25.00;38.10;;;24.13;28.09;98651.78;5004614;28;20458;-84
2022/07/18 08:47:55;;;;;;;3.30;2.47;;;25.10;38.00;;;24.15;27.79;98676.31;5002087;28;20485;-82
2022/07/18 08:50:23;;;;;;;4.00;2.43;;;25.00;37.80;;;24.31;26.86;98697.13;5017362;28;20555;-74
2022/07/18 08:52:52;;;;;;;3.30;2.17;;;24.90;37.10;;;24.55;26.49;98703.81;4995154;28;20524;-76
2022/07/18 08:55:19;;;;;;;2.93;2.27;;;25.10;37.10;;;24.48;27.30;98701.41;4991383;28;20456;-80
2022/07/18 08:57:46;;;;;;;3.83;2.13;;;25.10;37.20;;;24.54;26.43;98700.25;4999065;28;20465;-80
2022/07/18 09:00:15;;;;;;;2.63;1.80;;;25.20;36.80;;;24.84;25.21;98697.47;4993820;28;20471;-81
2022/07/18 09:02:42;;;;;;;3.50;1.90;;;25.30;36.10;;;24.86;24.29;98690.53;4996370;28;20677;-78
2022/07/18 09:05:20;;;;;;;2.03;1.60;;;25.40;35.40;;;24.99;24.75;98699.25;4991530;28;20451;-71
2022/07/18 09:07:49;;;;;;;2.93;1.90;;;25.50;35.50;;;24.81;25.25;98701.66;4995697;28;20459;-77
2022/07/18 09:10:16;;;;;;;3.03;1.70;;;25.40;35.70;;;24.86;24.49;98690.53;4991626;28;21282;-79
2022/07/18 09:12:58;;;;;;;2.30;1.60;;;25.50;35.30;;;24.93;24.43;98692.97;4993321;28;20940;-78
2022/07/18 09:15:25;;;;;;;3.13;1.47;;;25.60;35.50;;;25.13;24.40;98689.13;4994556;28;20581;-76
2022/07/18 09:17:56;;;;;;;3.00;1.60;;;25.70;35.40;;;25.22;24.53;98688.44;4999181;28;20463;-79
2022/07/18 09:20:25;;;;;;;2.63;1.67;;;25.70;35.50;;;25.25;24.20;98685.09;5007118;28;22469;-78
2022/07/18 09:22:53;;;;;;;2.97;1.43;;;25.80;35.10;;;25.43;22.86;98684.31;5004647;28;21029;-81
2022/07/18 09:25:24;;;;;;;3.10;1.77;;;25.90;34.50;;;25.45;23.36;98684.81;4995079;28;21002;-78
2022/07/18 09:27:53;;;;;;;2.40;1.60;;;25.90;34.70;;;25.34;23.90;98677.78;5001844;28;22284;-80
2022/07/18 09:30:25;;;;;;;5.63;2.50;;;26.00;34.90;;;25.56;24.09;98679.19;5002177;28;20463;-79
2022/07/18 09:33:05;;;;;;;2.07;1.90;;;26.10;35.30;;;25.83;23.50;98680.44;4997283;28;20479;-75
2022/07/18 09:35:39;;;;;;;3.20;1.40;;;26.20;35.10;;;25.91;22.87;98665.09;4994014;28;20502;-74
2022/07/18 09:38:08;;;;;;;2.20;1.40;;;26.40;34.60;;;26.10;21.92;98676.97;4996823;28;20597;-79
2022/07/18 09:40:37;;;;;;;4.10;1.70;;;26.60;34.10;;;26.14;21.90;98672.47;5002677;28;20491;-78
2022/07/18 09:43:08;;;;;;;1.67;1.50;;;26.70;33.80;;;26.24;21.90;98668.72;5014256;28;20460;-80
2022/07/18 09:45:37;;;;;;;2.60;1.30;;;26.80;33.80;;;26.03;21.96;98666.28;4997317;28;20467;-77
2022/07/18 09:48:07;;;;;;;1.83;1.17;;;26.70;33.70;;;26.22;21.88;98679.28;4996474;28;20469;-78
2022/07/18 09:50:40;;;;;;;2.47;1.50;;;26.70;33.90;;;26.03;22.00;98671.81;4991622;28;21287;-77
2022/07/18 09:53:16;;;;;;;3.43;1.60;;;26.60;33.60;;;26.14;21.85;98666.09;4993822;28;20465;-77
2022/07/18 09:55:49;;;;;;;4.20;1.50;;;26.70;33.80;;;26.45;22.02;98669.16;4993477;28;21088;-78
2022/07/18 09:58:21;;;;;;;1.33;1.23;;;26.90;34.00;;;26.59;21.80;98671.94;4992848;28;20840;-74
2022/07/18 10:00:49;;;;;;;2.60;1.20;;;27.10;33.80;;;26.70;21.25;98664.28;4993202;28;20476;-79
2022/07/18 10:03:19;;;;;;;4.40;1.47;;;27.20;33.70;;;26.98;21.22;98672.59;4997230;28;20510;-75
2022/07/18 10:05:50;;;;;;;2.40;1.47;;;27.40;33.80;;;27.37;20.68;98662.09;4996735;28;20483;-79
2022/07/18 10:08:20;;;;;;;3.33;1.43;;;27.70;33.40;;;27.49;20.39;98649.63;4995777;28;20463;-75
2022/07/18 10:10:50;;;;;;;1.70;1.40;;;27.90;33.20;;;27.63;20.24;98650.44;4991944;28;20455;-77
2022/07/18 10:13:19;;;;;;;2.30;1.40;;;28.10;33.10;;;27.68;20.50;98655.03;5008160;28;20929;-78
2022/07/18 10:15:50;;;;;;;2.30;1.60;;;28.20;33.30;;;27.94;20.06;98662.75;4992444;28;21093;-74
2022/07/18 10:18:19;;;;;;;1.70;1.47;;;28.40;33.20;;;27.71;19.55;98655.25;5008453;28;20448;-72
2022/07/18 10:20:54;;;;;;;1.70;1.60;;;28.30;32.70;;;27.83;20.07;98656.66;4993299;28;20486;-75
2022/07/18 10:23:24;;;;;;;1.40;1.13;;;28.30;32.90;;;27.50;19.93;98604.09;4993992;28;20511;-75
2022/07/18 10:26:14;;;;;;;1.37;1.27;;;28.30;32.70;;;27.95;20.10;98634.66;4993627;28;20455;-71
2022/07/18 10:29:20;;;;;;;3.50;3.20;;;28.40;33.00;;;27.96;20.00;98644.63;4995011;28;20454;-71